CWYO2: Chewey Road

                                SHEF ID:       CWYO2     Illinois River at Chewey, OK
STATION TYPE:
Regulating: Stage = 12.00, Flow = 13730

PRECIP STAGE STAGE(2) RIV-FLOW BAT-LOAD
in ft ft cfs volt
Ccp-Rev Ccp-Rev Ccp-Rev Ccp-Rev Ccp-Rev
(America/Chicago)
04/28 00:00 0.00 5.76 5.73 2532 12.46
04/28 01:00 0.00 5.72 5.70 2490 12.46
04/28 02:00 0.00 5.68 5.65 2449 12.46
04/28 03:00 0.00 5.65 5.61 2418 12.44
04/28 04:00 0.00 5.61 5.57 2378 12.43
04/28 05:00 0.00 5.58 5.54 2348 12.44
04/28 06:00 0.00 5.55 5.52 2318 12.42
04/28 07:00 0.00 5.51 5.48 2278 12.42
04/28 08:00 0.00 5.48 5.45 2249 12.42
04/28 09:00 0.00 5.45 5.41 2220 12.42
04/28 10:00 0.12 5.44 5.41 2210 12.44
04/28 11:00 0.08 5.42 5.39 2191 12.40
04/28 12:00 0.00 5.39 5.36 2162 12.52
04/28 13:00 0.07 5.37 5.32 2143 12.50
04/28 14:00 0.00 5.34 5.32 2115 12.48
04/28 15:00 0.00 5.30 5.27 2077 12.50
04/28 16:00 0.00 5.26 5.24 2040 12.42
04/28 17:00 1.14 5.24 5.34 2022 12.40
04/28 18:00 0.00 5.47 5.45 2239 12.43
04/28 19:00 0.00 5.43 5.38 2201 12.44
04/28 20:00 0.00 5.42 5.39 2191 12.40
04/28 21:00 0.00 5.41 5.37 2181 12.40
04/28 22:00 0.00 5.40 5.35 2172 12.40
04/28 23:00 0.00 5.39 5.35 2162 12.39
Data processed at Wed 29Apr2026 04:29 GMT

NOTICE: If you are parsing this page

Please convert to using our Data API. Starting early 2026 we will be migrating to: https://water.usace.army.mil with modern pages rendered in JavaScript. When this migration completes you will no longer be able to scrape this page! CWMSDataAPI (CDA)

Timeseries IDs (TSIDs)

TSIDs used from left to right in the data table
CHEW.Precip-Inc.Total.1Hour.1Hour.Ccp-Rev
CHEW.Stage.Inst.1Hour.0.Ccp-Rev
CHEW.Stage-Alt.Inst.1Hour.0.Ccp-Rev
CHEW.Flow.Inst.1Hour.0.Ccp-Rev
CHEW.Volt-Battery Load.Inst.1Hour.0.Ccp-Rev

                            

All information presented herein is the property of the government of the United States of America and may be revised or deleted at any time without prior notice. Dissemination of this information without the expressed written consent of the Public Affairs Office, Tulsa District U.S. Army Corps of Engineers is strictly prohibited. These data are gathered electronically and, as presented, have NOT undergone any form of quality control. These data are NOT guaranteed to be valid or correct.